<?xml version="1.0" encoding="UTF-8" standalone="no" ?><gpx xmlns="http://www.topografix.com/GPX/1/1" xmlns:gpxx="http://www.garmin.com/xmlschemas/GpxExtensions/v3" xmlns:wptx1="http://www.garmin.com/xmlschemas/WaypointExtension/v1" xmlns:gpxtpx="http://www.garmin.com/xmlschemas/TrackPointExtension/v1" creator="GuideVTT.com" version="1.1" xmlns:xsi="http://www.w3.org/2001/XMLSchema-instance" xsi:schemaLocation="http://www.topografix.com/GPX/1/1 http://www.topografix.com/GPX/1/1/gpx.xsd http://www.garmin.com/xmlschemas/GpxExtensions/v3 http://www8.garmin.com/xmlschemas/GpxExtensionsv3.xsd http://www.garmin.com/xmlschemas/WaypointExtension/v1 http://www8.garmin.com/xmlschemas/WaypointExtensionv1.xsd http://www.garmin.com/xmlschemas/TrackPointExtension/v1 http://www.garmin.com/xmlschemas/TrackPointExtensionv1.xsd">
<metadata><link href="http://www.garmin.com"><text>Garmin International</text></link><time>2013-06-22T15:13:50Z</time></metadata>
<trk><name>rp2015_08.gpx</name><extensions><gpxx:TrackExtension><gpxx:DisplayColor>Cyan</gpxx:DisplayColor></gpxx:TrackExtension></extensions><trkseg>
<trkpt lat="46.4884272683" lon="6.7255615722"><ele></ele><time>2015-10-25T21:6:36Z</time></trkpt>
<trkpt lat="46.4884262625" lon="6.7255199980"><ele></ele><time>2015-10-25T21:6:39Z</time></trkpt>
<trkpt lat="46.4884162042" lon="6.7254957743"><ele></ele><time>2015-10-25T21:6:42Z</time></trkpt>
<trkpt lat="46.4884140249" lon="6.7254930921"><ele></ele><time>2015-10-25T21:6:45Z</time></trkpt>
<trkpt lat="46.4884126000" lon="6.7254971154"><ele></ele><time>2015-10-25T21:6:48Z</time></trkpt>
<trkpt lat="46.4884124324" lon="6.7254821956"><ele></ele><time>2015-10-25T21:6:51Z</time></trkpt>
<trkpt lat="46.4883694332" lon="6.7253393680"><ele></ele><time>2015-10-25T21:6:54Z</time></trkpt>
<trkpt lat="46.4883529209" lon="6.7252659425"><ele></ele><time>2015-10-25T21:6:57Z</time></trkpt>
<trkpt lat="46.4884093311" lon="6.7248681374"><ele></ele><time>2015-10-25T21:7:0Z</time></trkpt>
<trkpt lat="46.4883900527" lon="6.7242889479"><ele></ele><time>2015-10-25T21:7:3Z</time></trkpt>
<trkpt lat="46.4884047210" lon="6.7240905482"><ele></ele><time>2015-10-25T21:7:6Z</time></trkpt>
<trkpt lat="46.4882862847" lon="6.7236046493"><ele></ele><time>2015-10-25T21:7:9Z</time></trkpt>
<trkpt lat="46.4882489853" lon="6.7231692094"><ele></ele><time>2015-10-25T21:7:12Z</time></trkpt>
<trkpt lat="46.4882364124" lon="6.7227341887"><ele></ele><time>2015-10-25T21:7:15Z</time></trkpt>
<trkpt lat="46.4882205706" lon="6.7223124113"><ele></ele><time>2015-10-25T21:7:18Z</time></trkpt>
<trkpt lat="46.4882144518" lon="6.7218887899"><ele></ele><time>2015-10-25T21:7:21Z</time></trkpt>
<trkpt lat="46.4882020466" lon="6.7214376759"><ele></ele><time>2015-10-25T21:7:24Z</time></trkpt>
<trkpt lat="46.4883011207" lon="6.7208759207"><ele></ele><time>2015-10-25T21:7:27Z</time></trkpt>
<trkpt lat="46.4885494765" lon="6.7202171031"><ele></ele><time>2015-10-25T21:7:30Z</time></trkpt>
<trkpt lat="46.4888134226" lon="6.7197598703"><ele></ele><time>2015-10-25T21:7:33Z</time></trkpt>
<trkpt lat="46.4891836513" lon="6.7191215884"><ele></ele><time>2015-10-25T21:7:36Z</time></trkpt>
<trkpt lat="46.4896012377" lon="6.7184184305"><ele></ele><time>2015-10-25T21:7:39Z</time></trkpt>
<trkpt lat="46.4898165688" lon="6.7180560809"><ele></ele><time>2015-10-25T21:7:42Z</time></trkpt>
<trkpt lat="46.4900698699" lon="6.7178169452"><ele></ele><time>2015-10-25T21:7:45Z</time></trkpt>
<trkpt lat="46.4903625660" lon="6.7174709402"><ele></ele><time>2015-10-25T21:7:48Z</time></trkpt>
<trkpt lat="46.4906152803" lon="6.7172344029"><ele></ele><time>2015-10-25T21:7:51Z</time></trkpt>
<trkpt lat="46.4907784760" lon="6.7169650085"><ele></ele><time>2015-10-25T21:7:54Z</time></trkpt>
<trkpt lat="46.4910162706" lon="6.7166050058"><ele></ele><time>2015-10-25T21:7:57Z</time></trkpt>
<trkpt lat="46.4912425820" lon="6.7163032573"><ele></ele><time>2015-10-25T21:8:0Z</time></trkpt>
<trkpt lat="46.4914819691" lon="6.7160896864"><ele></ele><time>2015-10-25T21:8:3Z</time></trkpt>
<trkpt lat="46.4916217793" lon="6.7160916980"><ele></ele><time>2015-10-25T21:8:6Z</time></trkpt>
<trkpt lat="46.4916667063" lon="6.7160794605"><ele></ele><time>2015-10-25T21:8:9Z</time></trkpt>
<trkpt lat="46.4918372780" lon="6.7159822304"><ele></ele><time>2015-10-25T21:8:12Z</time></trkpt>
<trkpt lat="46.4919518586" lon="6.7157976609"><ele></ele><time>2015-10-25T21:8:15Z</time></trkpt>
<trkpt lat="46.4921748172" lon="6.7154959124"><ele></ele><time>2015-10-25T21:8:18Z</time></trkpt>
<trkpt lat="46.4923801739" lon="6.7152039707"><ele></ele><time>2015-10-25T21:8:21Z</time></trkpt>
<trkpt lat="46.4925389271" lon="6.7149564531"><ele></ele><time>2015-10-25T21:8:24Z</time></trkpt>
<trkpt lat="46.4926334750" lon="6.7148093507"><ele></ele><time>2015-10-25T21:8:27Z</time></trkpt>
<trkpt lat="46.4926929027" lon="6.7146965303"><ele></ele><time>2015-10-25T21:8:30Z</time></trkpt>
<trkpt lat="46.4927347284" lon="6.7145703826"><ele></ele><time>2015-10-25T21:8:33Z</time></trkpt>
<trkpt lat="46.4927903004" lon="6.7141982261"><ele></ele><time>2015-10-25T21:8:36Z</time></trkpt>
<trkpt lat="46.4927049726" lon="6.7139331903"><ele></ele><time>2015-10-25T21:8:39Z</time></trkpt>
<trkpt lat="46.4926346485" lon="6.7136460263"><ele></ele><time>2015-10-25T21:8:42Z</time></trkpt>
<trkpt lat="46.4926137775" lon="6.7135194596"><ele></ele><time>2015-10-25T21:8:45Z</time></trkpt>
<trkpt lat="46.4927282743" lon="6.7132519931"><ele></ele><time>2015-10-25T21:8:48Z</time></trkpt>
<trkpt lat="46.4929374866" lon="6.7130033020"><ele></ele><time>2015-10-25T21:8:51Z</time></trkpt>
<trkpt lat="46.4931074716" lon="6.7128826026"><ele></ele><time>2015-10-25T21:8:54Z</time></trkpt>
<trkpt lat="46.4933687355" lon="6.7127593048"><ele></ele><time>2015-10-25T21:8:57Z</time></trkpt>
<trkpt lat="46.4935225435" lon="6.7127648368"><ele></ele><time>2015-10-25T21:9:0Z</time></trkpt>
<trkpt lat="46.4935435820" lon="6.7127800919"><ele></ele><time>2015-10-25T21:9:3Z</time></trkpt>
<trkpt lat="46.4935199451" lon="6.7129992787"><ele></ele><time>2015-10-25T21:9:6Z</time></trkpt>
<trkpt lat="46.4935156703" lon="6.7131601274"><ele></ele><time>2015-10-25T21:9:9Z</time></trkpt>
<trkpt lat="46.4936098829" lon="6.7133678310"><ele></ele><time>2015-10-25T21:9:12Z</time></trkpt>
<trkpt lat="46.4936177619" lon="6.7133913841"><ele></ele><time>2015-10-25T21:9:15Z</time></trkpt>
<trkpt lat="46.4936913550" lon="6.7134630494"><ele></ele><time>2015-10-25T21:9:18Z</time></trkpt>
<trkpt lat="46.4937506989" lon="6.7135900352"><ele></ele><time>2015-10-25T21:9:21Z</time></trkpt>
<trkpt lat="46.4938316680" lon="6.7137876805"><ele></ele><time>2015-10-25T21:9:24Z</time></trkpt>
<trkpt lat="46.4939165767" lon="6.7139607668"><ele></ele><time>2015-10-25T21:9:27Z</time></trkpt>
<trkpt lat="46.4940078557" lon="6.7140619364"><ele></ele><time>2015-10-25T21:9:30Z</time></trkpt>
<trkpt lat="46.4941274654" lon="6.7142299935"><ele></ele><time>2015-10-25T21:9:33Z</time></trkpt>
<trkpt lat="46.4941474982" lon="6.7142838053"><ele></ele><time>2015-10-25T21:9:36Z</time></trkpt>
<trkpt lat="46.4941457380" lon="6.7143267207"><ele></ele><time>2015-10-25T21:9:39Z</time></trkpt>
<trkpt lat="46.4941841271" lon="6.7145122960"><ele></ele><time>2015-10-25T21:9:42Z</time></trkpt>
<trkpt lat="46.4942292217" lon="6.7146861367"><ele></ele><time>2015-10-25T21:9:45Z</time></trkpt>
<trkpt lat="46.4942390285" lon="6.7148465663"><ele></ele><time>2015-10-25T21:9:48Z</time></trkpt>
<trkpt lat="46.4942533616" lon="6.7149972729"><ele></ele><time>2015-10-25T21:9:51Z</time></trkpt>
<trkpt lat="46.4942967799" lon="6.7151634861"><ele></ele><time>2015-10-25T21:9:54Z</time></trkpt>
<trkpt lat="46.4943476580" lon="6.7152975965"><ele></ele><time>2015-10-25T21:9:57Z</time></trkpt>
<trkpt lat="46.4943923336" lon="6.7154508177"><ele></ele><time>2015-10-25T21:10:0Z</time></trkpt>
<trkpt lat="46.4944234304" lon="6.7155266739"><ele></ele><time>2015-10-25T21:10:3Z</time></trkpt>
<trkpt lat="46.4944277052" lon="6.7155425996"><ele></ele><time>2015-10-25T21:10:6Z</time></trkpt>
<trkpt lat="46.4944329858" lon="6.7155567650"><ele></ele><time>2015-10-25T21:10:9Z</time></trkpt>
<trkpt lat="46.4944396075" lon="6.7155738641"><ele></ele><time>2015-10-25T21:10:12Z</time></trkpt>
<trkpt lat="46.4944401942" lon="6.7155823298"><ele></ele><time>2015-10-25T21:10:15Z</time></trkpt>
<trkpt lat="46.4943300560" lon="6.7158076353"><ele></ele><time>2015-10-25T21:10:18Z</time></trkpt>
<trkpt lat="46.4941861387" lon="6.7159533128"><ele></ele><time>2015-10-25T21:10:21Z</time></trkpt>
<trkpt lat="46.4939947799" lon="6.7160719167"><ele></ele><time>2015-10-25T21:10:24Z</time></trkpt>
<trkpt lat="46.4939418901" lon="6.7160916980"><ele></ele><time>2015-10-25T21:10:27Z</time></trkpt>
<trkpt lat="46.4937310014" lon="6.7163185123"><ele></ele><time>2015-10-25T21:10:30Z</time></trkpt>
<trkpt lat="46.4935541432" lon="6.7165702209"><ele></ele><time>2015-10-25T21:10:33Z</time></trkpt>
<trkpt lat="46.4937717374" lon="6.7168459017"><ele></ele><time>2015-10-25T21:10:36Z</time></trkpt>
<trkpt lat="46.4938586578" lon="6.7170986999"><ele></ele><time>2015-10-25T21:10:39Z</time></trkpt>
<trkpt lat="46.4938541315" lon="6.7175552621"><ele></ele><time>2015-10-25T21:10:42Z</time></trkpt>
<trkpt lat="46.4937765989" lon="6.7181607708"><ele></ele><time>2015-10-25T21:10:45Z</time></trkpt>
<trkpt lat="46.4937432390" lon="6.7191816028"><ele></ele><time>2015-10-25T21:10:48Z</time></trkpt>
<trkpt lat="46.4938051812" lon="6.7195470538"><ele></ele><time>2015-10-25T21:10:51Z</time></trkpt>
<trkpt lat="46.4938493539" lon="6.7196610477"><ele></ele><time>2015-10-25T21:10:54Z</time></trkpt>
<trkpt lat="46.4939729869" lon="6.7199996766"><ele></ele><time>2015-10-25T21:10:57Z</time></trkpt>
<trkpt lat="46.4940030780" lon="6.7203419935"><ele></ele><time>2015-10-25T21:11:0Z</time></trkpt>
<trkpt lat="46.4940430596" lon="6.7206328455"><ele></ele><time>2015-10-25T21:11:3Z</time></trkpt>
<trkpt lat="46.4940977935" lon="6.7209673673"><ele></ele><time>2015-10-25T21:11:6Z</time></trkpt>
<trkpt lat="46.4941411279" lon="6.7217136919"><ele></ele><time>2015-10-25T21:11:9Z</time></trkpt>
<trkpt lat="46.4941659383" lon="6.7221221421"><ele></ele><time>2015-10-25T21:11:12Z</time></trkpt>
<trkpt lat="46.4942290541" lon="6.7232422996"><ele></ele><time>2015-10-25T21:11:15Z</time></trkpt>
<trkpt lat="46.4942732267" lon="6.7240017839"><ele></ele><time>2015-10-25T21:11:18Z</time></trkpt>
<trkpt lat="46.4943202492" lon="6.7249402218"><ele></ele><time>2015-10-25T21:11:21Z</time></trkpt>
<trkpt lat="46.4944463968" lon="6.7254827823"><ele></ele><time>2015-10-25T21:11:24Z</time></trkpt>
<trkpt lat="46.4947098400" lon="6.7258848622"><ele></ele><time>2015-10-25T21:11:27Z</time></trkpt>
<trkpt lat="46.4949434437" lon="6.7260105908"><ele></ele><time>2015-10-25T21:11:30Z</time></trkpt>
<trkpt lat="46.4949559327" lon="6.7262842599"><ele></ele><time>2015-10-25T21:11:33Z</time></trkpt>
<trkpt lat="46.4947955031" lon="6.7265232280"><ele></ele><time>2015-10-25T21:11:36Z</time></trkpt>
<trkpt lat="46.4946259372" lon="6.7268549837"><ele></ele><time>2015-10-25T21:11:39Z</time></trkpt>
<trkpt lat="46.4944905695" lon="6.7272584047"><ele></ele><time>2015-10-25T21:11:42Z</time></trkpt>
<trkpt lat="46.4942000527" lon="6.7275868915"><ele></ele><time>2015-10-25T21:11:45Z</time></trkpt>
<trkpt lat="46.4939817041" lon="6.7277901527"><ele></ele><time>2015-10-25T21:11:48Z</time></trkpt>
<trkpt lat="46.4937973022" lon="6.7280297913"><ele></ele><time>2015-10-25T21:11:51Z</time></trkpt>
<trkpt lat="46.4937830530" lon="6.7283532489"><ele></ele><time>2015-10-25T21:11:54Z</time></trkpt>
<trkpt lat="46.4938448276" lon="6.7284750380"><ele></ele><time>2015-10-25T21:11:57Z</time></trkpt>
<trkpt lat="46.4938640222" lon="6.7285053805"><ele></ele><time>2015-10-25T21:12:0Z</time></trkpt>
<trkpt lat="46.4938610885" lon="6.7285023630"><ele></ele><time>2015-10-25T21:12:3Z</time></trkpt>
<trkpt lat="46.4938545506" lon="6.7285065539"><ele></ele><time>2015-10-25T21:12:6Z</time></trkpt>
<trkpt lat="46.4938463364" lon="6.7285070568"><ele></ele><time>2015-10-25T21:12:9Z</time></trkpt>
<trkpt lat="46.4940854721" lon="6.7284862697"><ele></ele><time>2015-10-25T21:12:12Z</time></trkpt>
<trkpt lat="46.4943276253" lon="6.7281910591"><ele></ele><time>2015-10-25T21:12:15Z</time></trkpt>
<trkpt lat="46.4945178106" lon="6.7279652506"><ele></ele><time>2015-10-25T21:12:18Z</time></trkpt>
<trkpt lat="46.4945777413" lon="6.7279469781"><ele></ele><time>2015-10-25T21:12:21Z</time></trkpt>
<trkpt lat="46.4946174715" lon="6.7279877979"><ele></ele><time>2015-10-25T21:12:24Z</time></trkpt>
<trkpt lat="46.4946976025" lon="6.7282276880"><ele></ele><time>2015-10-25T21:12:27Z</time></trkpt>
<trkpt lat="46.4947351534" lon="6.7282908037"><ele></ele><time>2015-10-25T21:12:30Z</time></trkpt>
<trkpt lat="46.4947332256" lon="6.7284873594"><ele></ele><time>2015-10-25T21:12:33Z</time></trkpt>
<trkpt lat="46.4947571978" lon="6.7287404090"><ele></ele><time>2015-10-25T21:12:36Z</time></trkpt>
<trkpt lat="46.4948582835" lon="6.7289485317"><ele></ele><time>2015-10-25T21:12:39Z</time></trkpt>
<trkpt lat="46.4949901309" lon="6.7291881703"><ele></ele><time>2015-10-25T21:12:42Z</time></trkpt>
<trkpt lat="46.4951198827" lon="6.7294380348"><ele></ele><time>2015-10-25T21:12:45Z</time></trkpt>
<trkpt lat="46.4952144306" lon="6.7296060920"><ele></ele><time>2015-10-25T21:12:48Z</time></trkpt>
<trkpt lat="46.4952220581" lon="6.7296214309"><ele></ele><time>2015-10-25T21:12:51Z</time></trkpt>
<trkpt lat="46.4952117484" lon="6.7296234425"><ele></ele><time>2015-10-25T21:12:54Z</time></trkpt>
<trkpt lat="46.4952072222" lon="6.7296182457"><ele></ele><time>2015-10-25T21:12:57Z</time></trkpt>
<trkpt lat="46.4952081442" lon="6.7296179943"><ele></ele><time>2015-10-25T21:13:0Z</time></trkpt>
<trkpt lat="46.4952133410" lon="6.7296215985"><ele></ele><time>2015-10-25T21:13:3Z</time></trkpt>
<trkpt lat="46.4952104911" lon="6.7296158150"><ele></ele><time>2015-10-25T21:13:6Z</time></trkpt>
<trkpt lat="46.4952122513" lon="6.7296108697"><ele></ele><time>2015-10-25T21:13:9Z</time></trkpt>
<trkpt lat="46.4952106588" lon="6.7296055891"><ele></ele><time>2015-10-25T21:13:12Z</time></trkpt>
<trkpt lat="46.4952159394" lon="6.7296122108"><ele></ele><time>2015-10-25T21:13:15Z</time></trkpt>
<trkpt lat="46.4952182863" lon="6.7296158988"><ele></ele><time>2015-10-25T21:13:18Z</time></trkpt>
<trkpt lat="46.4952972438" lon="6.7296528630"><ele></ele><time>2015-10-25T21:13:21Z</time></trkpt>
<trkpt lat="46.4953679871" lon="6.7296785954"><ele></ele><time>2015-10-25T21:13:24Z</time></trkpt>
<trkpt lat="46.4954384789" lon="6.7297205050"><ele></ele><time>2015-10-25T21:13:27Z</time></trkpt>
<trkpt lat="46.4954621997" lon="6.7297251988"><ele></ele><time>2015-10-25T21:13:30Z</time></trkpt>
<trkpt lat="46.4954859205" lon="6.7297391128"><ele></ele><time>2015-10-25T21:13:33Z</time></trkpt>
<trkpt lat="46.4956310112" lon="6.7298698705"><ele></ele><time>2015-10-25T21:13:36Z</time></trkpt>
<trkpt lat="46.4957673848" lon="6.7299734708"><ele></ele><time>2015-10-25T21:13:39Z</time></trkpt>
<trkpt lat="46.4957765210" lon="6.7299805954"><ele></ele><time>2015-10-25T21:13:42Z</time></trkpt>
<trkpt lat="46.4958368707" lon="6.7299976945"><ele></ele><time>2015-10-25T21:13:45Z</time></trkpt>
<trkpt lat="46.4959347714" lon="6.7300861236"><ele></ele><time>2015-10-25T21:13:48Z</time></trkpt>
<trkpt lat="46.4960002340" lon="6.7301159631"><ele></ele><time>2015-10-25T21:13:51Z</time></trkpt>
<trkpt lat="46.4960663673" lon="6.7302178033"><ele></ele><time>2015-10-25T21:13:54Z</time></trkpt>
<trkpt lat="46.4961106237" lon="6.7302774824"><ele></ele><time>2015-10-25T21:13:57Z</time></trkpt>
<trkpt lat="46.4961581491" lon="6.7303232476"><ele></ele><time>2015-10-25T21:14:0Z</time></trkpt>
<trkpt lat="46.4962241147" lon="6.7304663267"><ele></ele><time>2015-10-25T21:14:3Z</time></trkpt>
<trkpt lat="46.4962814469" lon="6.7305715196"><ele></ele><time>2015-10-25T21:14:6Z</time></trkpt>
<trkpt lat="46.4963421319" lon="6.7305908818"><ele></ele><time>2015-10-25T21:14:9Z</time></trkpt>
<trkpt lat="46.4964035712" lon="6.7306474596"><ele></ele><time>2015-10-25T21:14:12Z</time></trkpt>
<trkpt lat="46.4964552037" lon="6.7306638882"><ele></ele><time>2015-10-25T21:14:15Z</time></trkpt>
<trkpt lat="46.4964744821" lon="6.7306640558"><ele></ele><time>2015-10-25T21:14:18Z</time></trkpt>
<trkpt lat="46.4965503383" lon="6.7307114135"><ele></ele><time>2015-10-25T21:14:21Z</time></trkpt>
<trkpt lat="46.4965754002" lon="6.7307670694"><ele></ele><time>2015-10-25T21:14:24Z</time></trkpt>
<trkpt lat="46.4965725504" lon="6.7307689972"><ele></ele><time>2015-10-25T21:14:27Z</time></trkpt>
<trkpt lat="46.4965992048" lon="6.7309998348"><ele></ele><time>2015-10-25T21:14:30Z</time></trkpt>
<trkpt lat="46.4967065770" lon="6.7313816305"><ele></ele><time>2015-10-25T21:14:33Z</time></trkpt>
<trkpt lat="46.4969354030" lon="6.7315497715"><ele></ele><time>2015-10-25T21:14:36Z</time></trkpt>
<trkpt lat="46.4971063938" lon="6.7315983865"><ele></ele><time>2015-10-25T21:14:39Z</time></trkpt>
<trkpt lat="46.4973057993" lon="6.7316271365"><ele></ele><time>2015-10-25T21:14:42Z</time></trkpt>
<trkpt lat="46.4974830765" lon="6.7316910066"><ele></ele><time>2015-10-25T21:14:45Z</time></trkpt>
<trkpt lat="46.4975878503" lon="6.7317687068"><ele></ele><time>2015-10-25T21:14:48Z</time></trkpt>
<trkpt lat="46.4976369683" lon="6.7317883205"><ele></ele><time>2015-10-25T21:14:51Z</time></trkpt>
<trkpt lat="46.4976598509" lon="6.7318010610"><ele></ele><time>2015-10-25T21:14:54Z</time></trkpt>
<trkpt lat="46.4976963121" lon="6.7318557110"><ele></ele><time>2015-10-25T21:14:57Z</time></trkpt>
<trkpt lat="46.4976986591" lon="6.7318419646"><ele></ele><time>2015-10-25T21:15:0Z</time></trkpt>
<trkpt lat="46.4976928756" lon="6.7318321578"><ele></ele><time>2015-10-25T21:15:3Z</time></trkpt>
<trkpt lat="46.4976736810" lon="6.7318309844"><ele></ele><time>2015-10-25T21:15:6Z</time></trkpt>
<trkpt lat="46.4976654667" lon="6.7318347562"><ele></ele><time>2015-10-25T21:15:9Z</time></trkpt>
<trkpt lat="46.4976699091" lon="6.7318381090"><ele></ele><time>2015-10-25T21:15:12Z</time></trkpt>
<trkpt lat="46.4977528900" lon="6.7318362650"><ele></ele><time>2015-10-25T21:15:15Z</time></trkpt>
<trkpt lat="46.4979590010" lon="6.7318473291"><ele></ele><time>2015-10-25T21:15:18Z</time></trkpt>
<trkpt lat="46.4981853962" lon="6.7318863887"><ele></ele><time>2015-10-25T21:15:21Z</time></trkpt>
<trkpt lat="46.4983858913" lon="6.7318589799"><ele></ele><time>2015-10-25T21:15:24Z</time></trkpt>
<trkpt lat="46.4985866379" lon="6.7317329161"><ele></ele><time>2015-10-25T21:15:27Z</time></trkpt>
<trkpt lat="46.4987287950" lon="6.7318671942"><ele></ele><time>2015-10-25T21:15:30Z</time></trkpt>
<trkpt lat="46.4988297969" lon="6.7322099302"><ele></ele><time>2015-10-25T21:15:33Z</time></trkpt>
<trkpt lat="46.4989919029" lon="6.7324970104"><ele></ele><time>2015-10-25T21:15:36Z</time></trkpt>
<trkpt lat="46.4991564397" lon="6.7328783870"><ele></ele><time>2015-10-25T21:15:39Z</time></trkpt>
<trkpt lat="46.4993079007" lon="6.7333445884"><ele></ele><time>2015-10-25T21:15:42Z</time></trkpt>
<trkpt lat="46.4994580206" lon="6.7338434793"><ele></ele><time>2015-10-25T21:15:45Z</time></trkpt>
<trkpt lat="46.4996587671" lon="6.7343206611"><ele></ele><time>2015-10-25T21:15:48Z</time></trkpt>
<trkpt lat="46.4998572506" lon="6.7344950046"><ele></ele><time>2015-10-25T21:15:51Z</time></trkpt>
<trkpt lat="46.5000372939" lon="6.7345338129"><ele></ele><time>2015-10-25T21:15:54Z</time></trkpt>
<trkpt lat="46.5001928620" lon="6.7344812583"><ele></ele><time>2015-10-25T21:15:57Z</time></trkpt>
<trkpt lat="46.5002252162" lon="6.7344625667"><ele></ele><time>2015-10-25T21:16:0Z</time></trkpt>
<trkpt lat="46.5003423113" lon="6.7343546916"><ele></ele><time>2015-10-25T21:16:3Z</time></trkpt>
<trkpt lat="46.5003601648" lon="6.7343397718"><ele></ele><time>2015-10-25T21:16:6Z</time></trkpt>
<trkpt lat="46.5004641004" lon="6.7343971040"><ele></ele><time>2015-10-25T21:16:9Z</time></trkpt>
<trkpt lat="46.5006558783" lon="6.7347217351"><ele></ele><time>2015-10-25T21:16:12Z</time></trkpt>
<trkpt lat="46.5008596424" lon="6.7351237312"><ele></ele><time>2015-10-25T21:16:15Z</time></trkpt>
<trkpt lat="46.5010236762" lon="6.7355116457"><ele></ele><time>2015-10-25T21:16:18Z</time></trkpt>
<trkpt lat="46.5011416934" lon="6.7358161602"><ele></ele><time>2015-10-25T21:16:21Z</time></trkpt>
<trkpt lat="46.5011487342" lon="6.7358390428"><ele></ele><time>2015-10-25T21:16:24Z</time></trkpt>
<trkpt lat="46.5009551123" lon="6.7359818704"><ele></ele><time>2015-10-25T21:16:27Z</time></trkpt>
<trkpt lat="46.5008273721" lon="6.7359805293"><ele></ele><time>2015-10-25T21:16:30Z</time></trkpt>
<trkpt lat="46.5006079338" lon="6.7359262984"><ele></ele><time>2015-10-25T21:16:33Z</time></trkpt>
<trkpt lat="46.5000919439" lon="6.7361607403"><ele></ele><time>2015-10-25T21:16:36Z</time></trkpt>
<trkpt lat="46.4996062126" lon="6.7367525864"><ele></ele><time>2015-10-25T21:16:39Z</time></trkpt>
<trkpt lat="46.4993148576" lon="6.7370773852"><ele></ele><time>2015-10-25T21:16:42Z</time></trkpt>
<trkpt lat="46.4990391769" lon="6.7372959852"><ele></ele><time>2015-10-25T21:16:45Z</time></trkpt>
<trkpt lat="46.4985610731" lon="6.7372878548"><ele></ele><time>2015-10-25T21:16:48Z</time></trkpt>
<trkpt lat="46.4984726440" lon="6.7374220490"><ele></ele><time>2015-10-25T21:16:51Z</time></trkpt>
<trkpt lat="46.4981978852" lon="6.7379825469"><ele></ele><time>2015-10-25T21:16:54Z</time></trkpt>
<trkpt lat="46.4980851486" lon="6.7381833773"><ele></ele><time>2015-10-25T21:16:57Z</time></trkpt>
<trkpt lat="46.4978672192" lon="6.7385980301"><ele></ele><time>2015-10-25T21:17:0Z</time></trkpt>
<trkpt lat="46.4975794684" lon="6.7393717635"><ele></ele><time>2015-10-25T21:17:3Z</time></trkpt>
<trkpt lat="46.4974098187" lon="6.7399241310"><ele></ele><time>2015-10-25T21:17:6Z</time></trkpt>
<trkpt lat="46.4972849283" lon="6.7404966988"><ele></ele><time>2015-10-25T21:17:9Z</time></trkpt>
<trkpt lat="46.4972731099" lon="6.7408454698"><ele></ele><time>2015-10-25T21:17:12Z</time></trkpt>
<trkpt lat="46.4971598703" lon="6.7409079988"><ele></ele><time>2015-10-25T21:17:15Z</time></trkpt>
<trkpt lat="46.4970825892" lon="6.7408700287"><ele></ele><time>2015-10-25T21:17:18Z</time></trkpt>
<trkpt lat="46.4968691859" lon="6.7409659177"><ele></ele><time>2015-10-25T21:17:21Z</time></trkpt>
<trkpt lat="46.4966908190" lon="6.7414201330"><ele></ele><time>2015-10-25T21:17:24Z</time></trkpt>
<trkpt lat="46.4964111149" lon="6.7419170961"><ele></ele><time>2015-10-25T21:17:27Z</time></trkpt>
<trkpt lat="46.4963662717" lon="6.7419952154"><ele></ele><time>2015-10-25T21:17:30Z</time></trkpt>
<trkpt lat="46.4957938716" lon="6.7426574696"><ele></ele><time>2015-10-25T21:17:33Z</time></trkpt>
<trkpt lat="46.4955207054" lon="6.7428028956"><ele></ele><time>2015-10-25T21:17:36Z</time></trkpt>
<trkpt lat="46.4953848347" lon="6.7430021334"><ele></ele><time>2015-10-25T21:17:39Z</time></trkpt>
<trkpt lat="46.4954013471" lon="6.7430639081"><ele></ele><time>2015-10-25T21:17:42Z</time></trkpt>
<trkpt lat="46.4954620320" lon="6.7432103399"><ele></ele><time>2015-10-25T21:17:45Z</time></trkpt>
<trkpt lat="46.4955157600" lon="6.7432847712"><ele></ele><time>2015-10-25T21:17:48Z</time></trkpt>
<trkpt lat="46.4955941308" lon="6.7433748767"><ele></ele><time>2015-10-25T21:17:51Z</time></trkpt>
<trkpt lat="46.4956253115" lon="6.7434130982"><ele></ele><time>2015-10-25T21:17:54Z</time></trkpt>
<trkpt lat="46.4957133215" lon="6.7436183710"><ele></ele><time>2015-10-25T21:17:57Z</time></trkpt>
<trkpt lat="46.4957217034" lon="6.7437592708"><ele></ele><time>2015-10-25T21:18:0Z</time></trkpt>
<trkpt lat="46.4957055263" lon="6.7438552435"><ele></ele><time>2015-10-25T21:18:3Z</time></trkpt>
<trkpt lat="46.4956880081" lon="6.7439093906"><ele></ele><time>2015-10-25T21:18:6Z</time></trkpt>
<trkpt lat="46.4956198633" lon="6.7440451775"><ele></ele><time>2015-10-25T21:18:9Z</time></trkpt>
<trkpt lat="46.4956220426" lon="6.7440460995"><ele></ele><time>2015-10-25T21:18:12Z</time></trkpt>
<trkpt lat="46.4956128225" lon="6.7440822255"><ele></ele><time>2015-10-25T21:18:15Z</time></trkpt>
<trkpt lat="46.4955421630" lon="6.7441851553"><ele></ele><time>2015-10-25T21:18:18Z</time></trkpt>
<trkpt lat="46.4955093898" lon="6.7442955449"><ele></ele><time>2015-10-25T21:18:21Z</time></trkpt>
<trkpt lat="46.4954827353" lon="6.7444053479"><ele></ele><time>2015-10-25T21:18:24Z</time></trkpt>
<trkpt lat="46.4954523090" lon="6.7444485147"><ele></ele><time>2015-10-25T21:18:27Z</time></trkpt>
<trkpt lat="46.4954472799" lon="6.7444635183"><ele></ele><time>2015-10-25T21:18:30Z</time></trkpt>
<trkpt lat="46.4954554103" lon="6.7444682121"><ele></ele><time>2015-10-25T21:18:33Z</time></trkpt>
<trkpt lat="46.4954466093" lon="6.7444571480"><ele></ele><time>2015-10-25T21:18:36Z</time></trkpt>
<trkpt lat="46.4954376407" lon="6.7444615066"><ele></ele><time>2015-10-25T21:18:39Z</time></trkpt>
<trkpt lat="46.4954318572" lon="6.7444745824"><ele></ele><time>2015-10-25T21:18:42Z</time></trkpt>
<trkpt lat="46.4954334497" lon="6.7444815394"><ele></ele><time>2015-10-25T21:18:45Z</time></trkpt>
<trkpt lat="46.4954334497" lon="6.7444816232"><ele></ele><time>2015-10-25T21:18:48Z</time></trkpt>
<trkpt lat="46.4954452682" lon="6.7447074316"><ele></ele><time>2015-10-25T21:18:51Z</time></trkpt>
<trkpt lat="46.4954403229" lon="6.7448409554"><ele></ele><time>2015-10-25T21:18:54Z</time></trkpt>
<trkpt lat="46.4955375530" lon="6.7449944280"><ele></ele><time>2015-10-25T21:18:57Z</time></trkpt>
<trkpt lat="46.4956730045" lon="6.7451091763"><ele></ele><time>2015-10-25T21:19:0Z</time></trkpt>
<trkpt lat="46.4957944583" lon="6.7452473938"><ele></ele><time>2015-10-25T21:19:3Z</time></trkpt>
<trkpt lat="46.4958703145" lon="6.7453222442"><ele></ele><time>2015-10-25T21:19:6Z</time></trkpt>
<trkpt lat="46.4959484339" lon="6.7453944124"><ele></ele><time>2015-10-25T21:19:9Z</time></trkpt>
<trkpt lat="46.4960139804" lon="6.7454683408"><ele></ele><time>2015-10-25T21:19:12Z</time></trkpt>
<trkpt lat="46.4960587397" lon="6.7455095798"><ele></ele><time>2015-10-25T21:19:15Z</time></trkpt>
<trkpt lat="46.4961327519" lon="6.7455941532"><ele></ele><time>2015-10-25T21:19:18Z</time></trkpt>
<trkpt lat="46.4961849712" lon="6.7456577718"><ele></ele><time>2015-10-25T21:19:21Z</time></trkpt>
<trkpt lat="46.4962563012" lon="6.7457949836"><ele></ele><time>2015-10-25T21:19:24Z</time></trkpt>
<trkpt lat="46.4963003062" lon="6.7458927166"><ele></ele><time>2015-10-25T21:19:27Z</time></trkpt>
<trkpt lat="46.4963102806" lon="6.7459502164"><ele></ele><time>2015-10-25T21:19:30Z</time></trkpt>
<trkpt lat="46.4963368513" lon="6.7461490352"><ele></ele><time>2015-10-25T21:19:33Z</time></trkpt>
<trkpt lat="46.4963355102" lon="6.7461627815"><ele></ele><time>2015-10-25T21:19:36Z</time></trkpt>
<trkpt lat="46.4963511005" lon="6.7464120593"><ele></ele><time>2015-10-25T21:19:39Z</time></trkpt>
<trkpt lat="46.4963063411" lon="6.7466410529"><ele></ele><time>2015-10-25T21:19:42Z</time></trkpt>
<trkpt lat="46.4962714724" lon="6.7467339244"><ele></ele><time>2015-10-25T21:19:45Z</time></trkpt>
<trkpt lat="46.4962587319" lon="6.7467160709"><ele></ele><time>2015-10-25T21:19:48Z</time></trkpt>
<trkpt lat="46.4962634258" lon="6.7467143107"><ele></ele><time>2015-10-25T21:19:51Z</time></trkpt>
<trkpt lat="46.4962740708" lon="6.7467165738"><ele></ele><time>2015-10-25T21:19:54Z</time></trkpt>
<trkpt lat="46.4962735679" lon="6.7467304040"><ele></ele><time>2015-10-25T21:19:57Z</time></trkpt>
<trkpt lat="46.4962576423" lon="6.7467974592"><ele></ele><time>2015-10-25T21:20:0Z</time></trkpt>
<trkpt lat="46.4961708058" lon="6.7470503412"><ele></ele><time>2015-10-25T21:20:3Z</time></trkpt>
<trkpt lat="46.4958935324" lon="6.7477168702"><ele></ele><time>2015-10-25T21:20:6Z</time></trkpt>
<trkpt lat="46.4954825677" lon="6.7484100536"><ele></ele><time>2015-10-25T21:20:9Z</time></trkpt>
<trkpt lat="46.4953268319" lon="6.7486651149"><ele></ele><time>2015-10-25T21:20:12Z</time></trkpt>
<trkpt lat="46.4950130973" lon="6.7490718048"><ele></ele><time>2015-10-25T21:20:15Z</time></trkpt>
<trkpt lat="46.4946701098" lon="6.7494593840"><ele></ele><time>2015-10-25T21:20:18Z</time></trkpt>
<trkpt lat="46.4944805112" lon="6.7497555166"><ele></ele><time>2015-10-25T21:20:21Z</time></trkpt>
<trkpt lat="46.4942512661" lon="6.7500910442"><ele></ele><time>2015-10-25T21:20:24Z</time></trkpt>
<trkpt lat="46.4941164013" lon="6.7502968200"><ele></ele><time>2015-10-25T21:20:27Z</time></trkpt>
<trkpt lat="46.4940304868" lon="6.7504560761"><ele></ele><time>2015-10-25T21:20:30Z</time></trkpt>
<trkpt lat="46.4939780999" lon="6.7505341955"><ele></ele><time>2015-10-25T21:20:33Z</time></trkpt>
<trkpt lat="46.4937527943" lon="6.7508161627"><ele></ele><time>2015-10-25T21:20:36Z</time></trkpt>
<trkpt lat="46.4934852440" lon="6.7512567155"><ele></ele><time>2015-10-25T21:20:39Z</time></trkpt>
<trkpt lat="46.4932134189" lon="6.7518007010"><ele></ele><time>2015-10-25T21:20:42Z</time></trkpt>
<trkpt lat="46.4929082338" lon="6.7523290124"><ele></ele><time>2015-10-25T21:20:45Z</time></trkpt>
<trkpt lat="46.4927212335" lon="6.7526515480"><ele></ele><time>2015-10-25T21:20:48Z</time></trkpt>
<trkpt lat="46.4926664997" lon="6.7527562380"><ele></ele><time>2015-10-25T21:20:51Z</time></trkpt>
<trkpt lat="46.4921404514" lon="6.7533197533"><ele></ele><time>2015-10-25T21:20:54Z</time></trkpt>
<trkpt lat="46.4918227773" lon="6.7535683606"><ele></ele><time>2015-10-25T21:20:57Z</time></trkpt>
<trkpt lat="46.4917268883" lon="6.7536037322"><ele></ele><time>2015-10-25T21:21:0Z</time></trkpt>
<trkpt lat="46.4917708095" lon="6.7534114514"><ele></ele><time>2015-10-25T21:21:3Z</time></trkpt>
<trkpt lat="46.4918593224" lon="6.7531860620"><ele></ele><time>2015-10-25T21:21:6Z</time></trkpt>
<trkpt lat="46.4919211809" lon="6.7529588286"><ele></ele><time>2015-10-25T21:21:9Z</time></trkpt>
<trkpt lat="46.4920174889" lon="6.7520616297"><ele></ele><time>2015-10-25T21:21:12Z</time></trkpt>
<trkpt lat="46.4920437243" lon="6.7518617213"><ele></ele><time>2015-10-25T21:21:15Z</time></trkpt>
<trkpt lat="46.4921883959" lon="6.7512963619"><ele></ele><time>2015-10-25T21:21:18Z</time></trkpt>
<trkpt lat="46.4923518430" lon="6.7509543803"><ele></ele><time>2015-10-25T21:21:21Z</time></trkpt>
<trkpt lat="46.4926633146" lon="6.7500921339"><ele></ele><time>2015-10-25T21:21:24Z</time></trkpt>
<trkpt lat="46.4930653945" lon="6.7490194179"><ele></ele><time>2015-10-25T21:21:27Z</time></trkpt>
<trkpt lat="46.4931108244" lon="6.7488376144"><ele></ele><time>2015-10-25T21:21:30Z</time></trkpt>
<trkpt lat="46.4930560067" lon="6.7483861651"><ele></ele><time>2015-10-25T21:21:33Z</time></trkpt>
<trkpt lat="46.4930237364" lon="6.7483584210"><ele></ele><time>2015-10-25T21:21:36Z</time></trkpt>
<trkpt lat="46.4930237364" lon="6.7483439203"><ele></ele><time>2015-10-25T21:21:39Z</time></trkpt>
<trkpt lat="46.4930237364" lon="6.7483492848"><ele></ele><time>2015-10-25T21:21:42Z</time></trkpt>
<trkpt lat="46.4930093195" lon="6.7483427469"><ele></ele><time>2015-10-25T21:21:45Z</time></trkpt>
<trkpt lat="46.4930111635" lon="6.7483393941"><ele></ele><time>2015-10-25T21:21:48Z</time></trkpt>
<trkpt lat="46.4930485468" lon="6.7480733525"><ele></ele><time>2015-10-25T21:21:51Z</time></trkpt>
<trkpt lat="46.4932002593" lon="6.7475584522"><ele></ele><time>2015-10-25T21:21:54Z</time></trkpt>
<trkpt lat="46.4932244830" lon="6.7475046404"><ele></ele><time>2015-10-25T21:21:57Z</time></trkpt>
<trkpt lat="46.4932575077" lon="6.7471515108"><ele></ele><time>2015-10-25T21:22:0Z</time></trkpt>
<trkpt lat="46.4932061266" lon="6.7469096091"><ele></ele><time>2015-10-25T21:22:3Z</time></trkpt>
<trkpt lat="46.4930522349" lon="6.7467075214"><ele></ele><time>2015-10-25T21:22:6Z</time></trkpt>
<trkpt lat="46.4928861894" lon="6.7466035858"><ele></ele><time>2015-10-25T21:22:9Z</time></trkpt>
<trkpt lat="46.4929155260" lon="6.7463371251"><ele></ele><time>2015-10-25T21:22:12Z</time></trkpt>
<trkpt lat="46.4928805735" lon="6.7460448481"><ele></ele><time>2015-10-25T21:22:15Z</time></trkpt>
<trkpt lat="46.4926859457" lon="6.7458020244"><ele></ele><time>2015-10-25T21:22:18Z</time></trkpt>
<trkpt lat="46.4923279546" lon="6.7455872800"><ele></ele><time>2015-10-25T21:22:21Z</time></trkpt>
<trkpt lat="46.4923088439" lon="6.7455737852"><ele></ele><time>2015-10-25T21:22:24Z</time></trkpt>
<trkpt lat="46.4922840334" lon="6.7455275171"><ele></ele><time>2015-10-25T21:22:27Z</time></trkpt>
<trkpt lat="46.4922808483" lon="6.7455207277"><ele></ele><time>2015-10-25T21:22:30Z</time></trkpt>
<trkpt lat="46.4922805969" lon="6.7455205601"><ele></ele><time>2015-10-25T21:22:33Z</time></trkpt>
<trkpt lat="46.4923134539" lon="6.7454155348"><ele></ele><time>2015-10-25T21:22:36Z</time></trkpt>
<trkpt lat="46.4924629033" lon="6.7451757286"><ele></ele><time>2015-10-25T21:22:39Z</time></trkpt>
<trkpt lat="46.4925362449" lon="6.7447417974"><ele></ele><time>2015-10-25T21:22:42Z</time></trkpt>
<trkpt lat="46.4925086685" lon="6.7446649354"><ele></ele><time>2015-10-25T21:22:45Z</time></trkpt>
<trkpt lat="46.4923609793" lon="6.7442049365"><ele></ele><time>2015-10-25T21:22:48Z</time></trkpt>
<trkpt lat="46.4923385158" lon="6.7439310160"><ele></ele><time>2015-10-25T21:22:51Z</time></trkpt>
<trkpt lat="46.4921490010" lon="6.7437775433"><ele></ele><time>2015-10-25T21:22:54Z</time></trkpt>
<trkpt lat="46.4920425508" lon="6.7437232286"><ele></ele><time>2015-10-25T21:22:57Z</time></trkpt>
<trkpt lat="46.4919770043" lon="6.7435568478"><ele></ele><time>2015-10-25T21:23:0Z</time></trkpt>
<trkpt lat="46.4919458237" lon="6.7428365070"><ele></ele><time>2015-10-25T21:23:3Z</time></trkpt>
<trkpt lat="46.4917710610" lon="6.7417932954"><ele></ele><time>2015-10-25T21:23:6Z</time></trkpt>
<trkpt lat="46.4917250443" lon="6.7414746154"><ele></ele><time>2015-10-25T21:23:9Z</time></trkpt>
<trkpt lat="46.4916159958" lon="6.7410723679"><ele></ele><time>2015-10-25T21:23:12Z</time></trkpt>
<trkpt lat="46.4915409777" lon="6.7406614870"><ele></ele><time>2015-10-25T21:23:15Z</time></trkpt>
<trkpt lat="46.4915281534" lon="6.7404307332"><ele></ele><time>2015-10-25T21:23:18Z</time></trkpt>
<trkpt lat="46.4915358648" lon="6.7402027454"><ele></ele><time>2015-10-25T21:23:21Z</time></trkpt>
<trkpt lat="46.4913363755" lon="6.7395000905"><ele></ele><time>2015-10-25T21:23:24Z</time></trkpt>
<trkpt lat="46.4911024366" lon="6.7389327195"><ele></ele><time>2015-10-25T21:23:27Z</time></trkpt>
<trkpt lat="46.4911177754" lon="6.7388600484"><ele></ele><time>2015-10-25T21:23:30Z</time></trkpt>
<trkpt lat="46.4911550749" lon="6.7387211602"><ele></ele><time>2015-10-25T21:23:33Z</time></trkpt>
<trkpt lat="46.4912689012" lon="6.7379644420"><ele></ele><time>2015-10-25T21:23:36Z</time></trkpt>
<trkpt lat="46.4913409017" lon="6.7371575162"><ele></ele><time>2015-10-25T21:23:39Z</time></trkpt>
<trkpt lat="46.4913475234" lon="6.7367317993"><ele></ele><time>2015-10-25T21:23:42Z</time></trkpt>
<trkpt lat="46.4913289994" lon="6.7362904083"><ele></ele><time>2015-10-25T21:23:45Z</time></trkpt>
<trkpt lat="46.4913126547" lon="6.7358900048"><ele></ele><time>2015-10-25T21:23:48Z</time></trkpt>
<trkpt lat="46.4912167657" lon="6.7354374658"><ele></ele><time>2015-10-25T21:23:51Z</time></trkpt>
<trkpt lat="46.4910507202" lon="6.7346989363"><ele></ele><time>2015-10-25T21:23:54Z</time></trkpt>
<trkpt lat="46.4908742812" lon="6.7339308187"><ele></ele><time>2015-10-25T21:23:57Z</time></trkpt>
<trkpt lat="46.4906738698" lon="6.7333207838"><ele></ele><time>2015-10-25T21:24:0Z</time></trkpt>
<trkpt lat="46.4905613009" lon="6.7327118386"><ele></ele><time>2015-10-25T21:24:3Z</time></trkpt>
<trkpt lat="46.4903858677" lon="6.7320728023"><ele></ele><time>2015-10-25T21:24:6Z</time></trkpt>
<trkpt lat="46.4902909845" lon="6.7317062616"><ele></ele><time>2015-10-25T21:24:9Z</time></trkpt>
<trkpt lat="46.4902123623" lon="6.7314350232"><ele></ele><time>2015-10-25T21:24:12Z</time></trkpt>
<trkpt lat="46.4900968596" lon="6.7311951332"><ele></ele><time>2015-10-25T21:24:15Z</time></trkpt>
<trkpt lat="46.4900839515" lon="6.7311709933"><ele></ele><time>2015-10-25T21:24:18Z</time></trkpt>
<trkpt lat="46.4900449757" lon="6.7310417444"><ele></ele><time>2015-10-25T21:24:21Z</time></trkpt>
<trkpt lat="46.4898272138" lon="6.7304545920"><ele></ele><time>2015-10-25T21:24:24Z</time></trkpt>
<trkpt lat="46.4897350129" lon="6.7302049790"><ele></ele><time>2015-10-25T21:24:27Z</time></trkpt>
<trkpt lat="46.4894981403" lon="6.7295648530"><ele></ele><time>2015-10-25T21:24:30Z</time></trkpt>
<trkpt lat="46.4893556479" lon="6.7291911878"><ele></ele><time>2015-10-25T21:24:33Z</time></trkpt>
<trkpt lat="46.4891798794" lon="6.7285930552"><ele></ele><time>2015-10-25T21:24:36Z</time></trkpt>
<trkpt lat="46.4890074637" lon="6.7279127799"><ele></ele><time>2015-10-25T21:24:39Z</time></trkpt>
<trkpt lat="46.4889819827" lon="6.7276617419"><ele></ele><time>2015-10-25T21:24:42Z</time></trkpt>
<trkpt lat="46.4890844095" lon="6.7271292396"><ele></ele><time>2015-10-25T21:24:45Z</time></trkpt>
<trkpt lat="46.4891258162" lon="6.7267698236"><ele></ele><time>2015-10-25T21:24:48Z</time></trkpt>
<trkpt lat="46.4888705872" lon="6.7268017586"><ele></ele><time>2015-10-25T21:24:51Z</time></trkpt>
<trkpt lat="46.4888065495" lon="6.7268119007"><ele></ele><time>2015-10-25T21:24:54Z</time></trkpt>
<trkpt lat="46.4886412583" lon="6.7266434245"><ele></ele><time>2015-10-25T21:24:57Z</time></trkpt>
<trkpt lat="46.4886183757" lon="6.7264270037"><ele></ele><time>2015-10-25T21:25:0Z</time></trkpt>
<trkpt lat="46.4886539150" lon="6.7261524126"><ele></ele><time>2015-10-25T21:25:3Z</time></trkpt>
<trkpt lat="46.4884789847" lon="6.7256930005"><ele></ele><time>2015-10-25T21:25:6Z</time></trkpt>
<trkpt lat="46.4884196408" lon="6.7255907413"><ele></ele><time>2015-10-25T21:25:9Z</time></trkpt>
</trkseg></trk></gpx>